createdAt,value
2017-08-31T00:00:01.961Z,810.05
2017-08-31T00:00:05.920Z,810.05
2017-08-31T00:00:09.752Z,810.04
2017-08-31T00:00:13.830Z,810.07
2017-08-31T00:00:17.676Z,810.08
2017-08-31T00:00:21.390Z,810.09
2017-08-31T00:00:25.590Z,810.09
2017-08-31T00:00:29.546Z,810.12
2017-08-31T00:00:33.518Z,810.14
2017-08-31T00:00:37.355Z,810.1
2017-08-31T00:00:41.568Z,810.14
2017-08-31T00:00:45.921Z,810.1
2017-08-31T00:00:50.158Z,810.17
2017-08-31T00:00:54.373Z,810.13
2017-08-31T00:00:58.459Z,810.17
2017-08-31T00:01:02.819Z,810.18
2017-08-31T00:01:06.787Z,810.17
2017-08-31T00:01:10.768Z,810.2
2017-08-31T00:01:15.112Z,810.2
2017-08-31T00:01:19.335Z,810.21
2017-08-31T00:01:23.547Z,810.22
2017-08-31T00:01:27.661Z,810.2
2017-08-31T00:01:31.876Z,810.2
2017-08-31T00:01:35.967Z,810.25
2017-08-31T00:01:39.815Z,810.27
2017-08-31T00:01:44.034Z,810.26
2017-08-31T00:01:48.378Z,810.21
2017-08-31T00:01:52.592Z,810.24
2017-08-31T00:01:56.804Z,810.3
2017-08-31T00:02:01.022Z,810.31
2017-08-31T00:02:05.312Z,810.33
2017-08-31T00:02:09.654Z,810.25
2017-08-31T00:02:14.006Z,810.33
2017-08-31T00:02:18.341Z,810.32
2017-08-31T00:02:22.563Z,810.32
2017-08-31T00:02:26.539Z,810.35
2017-08-31T00:02:30.635Z,810.37
2017-08-31T00:02:34.972Z,810.38
2017-08-31T00:02:39.178Z,810.39
2017-08-31T00:03:15.369Z,810.47
2017-08-31T00:03:19.337Z,810.47
2017-08-31T00:03:23.293Z,810.49
2017-08-31T00:03:27.136Z,810.44
2017-08-31T00:03:31.350Z,810.51
2017-08-31T00:03:35.704Z,810.51
2017-08-31T00:03:39.685Z,810.5
2017-08-31T00:03:44.012Z,810.46
2017-08-31T00:03:48.108Z,810.54
2017-08-31T00:03:52.439Z,810.53
2017-08-31T00:03:56.415Z,810.55
2017-08-31T00:04:00.763Z,810.56
2017-08-31T00:04:04.846Z,810.57
2017-08-31T00:04:08.811Z,810.53
2017-08-31T00:04:13.014Z,810.58
2017-08-31T00:04:16.970Z,810.58
2017-08-31T00:04:21.193Z,810.61
2017-08-31T00:04:25.407Z,810.61
2017-08-31T00:04:29.498Z,810.59
2017-08-31T00:04:33.584Z,810.63
2017-08-31T00:04:37.805Z,810.65
2017-08-31T00:04:42.022Z,810.65
2017-08-31T00:04:46.242Z,810.65
2017-08-31T00:04:50.332Z,810.66
2017-08-31T00:04:54.544Z,810.67
2017-08-31T00:04:58.771Z,810.71
2017-08-31T00:05:02.766Z,810.72
2017-08-31T00:05:06.725Z,810.69
2017-08-31T00:05:10.691Z,810.72
2017-08-31T00:05:14.918Z,810.75
2017-08-31T00:05:19.142Z,810.7
2017-08-31T00:05:23.096Z,810.76
2017-08-31T00:05:27.316Z,810.74
2017-08-31T00:05:31.391Z,810.78
2017-08-31T00:05:35.639Z,810.79
2017-08-31T00:05:39.738Z,810.79
2017-08-31T00:05:44.211Z,810.8
2017-08-31T00:05:48.169Z,810.82
2017-08-31T00:05:52.497Z,810.8
2017-08-31T00:05:56.713Z,810.82
2017-08-31T00:06:00.665Z,810.83
2017-08-31T00:06:04.766Z,810.79
2017-08-31T00:06:08.870Z,810.85
2017-08-31T00:06:13.234Z,810.85
2017-08-31T00:06:17.215Z,810.83
2017-08-31T00:06:21.170Z,810.81
2017-08-31T00:06:25.019Z,810.89
2017-08-31T00:06:29.227Z,810.87
2017-08-31T00:06:33.297Z,810.91
2017-08-31T00:06:37.510Z,810.93
2017-08-31T00:06:41.866Z,810.92
2017-08-31T00:06:45.707Z,810.95
2017-08-31T00:06:49.554Z,810.95
2017-08-31T00:06:53.656Z,810.95
2017-08-31T00:06:57.751Z,810.95
2017-08-31T00:07:02.033Z,810.96
2017-08-31T00:07:06.122Z,810.96
2017-08-31T00:07:10.075Z,811.02
2017-08-31T00:07:14.050Z,811.01
2017-08-31T00:07:18.015Z,811.02
2017-08-31T00:07:22.242Z,811.03
2017-08-31T00:07:26.461Z,811.05
2017-08-31T00:07:30.436Z,811.04
2017-08-31T00:07:34.254Z,811.03
2017-08-31T00:07:38.602Z,811.06
2017-08-31T00:07:42.698Z,811.07
2017-08-31T00:07:46.901Z,811.04
2017-08-31T00:07:50.855Z,811.09
2017-08-31T00:07:55.077Z,811.03
2017-08-31T00:07:59.301Z,811.09
2017-08-31T00:08:03.520Z,811.08
2017-08-31T00:08:07.591Z,811.11
2017-08-31T00:08:11.546Z,811.06
2017-08-31T00:08:15.752Z,811.12
2017-08-31T00:08:19.948Z,811.11
2017-08-31T00:08:23.918Z,811.1
2017-08-31T00:08:28.122Z,811.09
2017-08-31T00:08:32.217Z,811.13
2017-08-31T00:08:36.300Z,811.15
2017-08-31T00:08:40.497Z,811.17
2017-08-31T00:08:44.459Z,811.16
2017-08-31T00:08:48.681Z,811.16
2017-08-31T00:08:53.025Z,811.19
2017-08-31T00:08:57.251Z,811.2
2017-08-31T00:09:01.464Z,811.2
2017-08-31T00:09:05.689Z,811.23
2017-08-31T00:09:09.897Z,811.22
2017-08-31T00:09:14.368Z,811.21
2017-08-31T00:09:18.205Z,811.25
2017-08-31T00:09:22.424Z,811.25
2017-08-31T00:09:26.505Z,811.25
2017-08-31T00:09:30.341Z,811.24
2017-08-31T00:09:34.453Z,811.26
2017-08-31T00:09:38.551Z,811.25
2017-08-31T00:09:42.618Z,811.31
2017-08-31T00:09:46.820Z,811.27
2017-08-31T00:09:50.915Z,811.3
2017-08-31T00:09:55.372Z,811.28
2017-08-31T00:09:59.335Z,811.27
2017-08-31T00:10:03.531Z,811.28
2017-08-31T00:10:07.744Z,811.28
2017-08-31T00:10:11.824Z,811.3
2017-08-31T00:10:15.673Z,811.3
2017-08-31T00:10:19.628Z,811.33
2017-08-31T00:10:23.591Z,811.33
2017-08-31T00:10:27.814Z,811.32
2017-08-31T00:10:32.040Z,811.32
2017-08-31T00:10:36.395Z,811.35
2017-08-31T00:10:40.216Z,811.37
2017-08-31T00:10:44.307Z,811.36
2017-08-31T00:10:48.276Z,811.36
2017-08-31T00:10:52.360Z,811.34
2017-08-31T00:10:56.583Z,811.38
2017-08-31T00:11:00.817Z,811.38
2017-08-31T00:11:04.726Z,811.38
2017-08-31T00:11:08.704Z,811.35
2017-08-31T00:11:12.797Z,811.41
2017-08-31T00:11:16.889Z,811.39
2017-08-31T00:11:20.852Z,811.41
2017-08-31T00:11:25.195Z,811.39
2017-08-31T00:11:29.151Z,811.41
2017-08-31T00:11:32.978Z,811.4
2017-08-31T00:11:36.804Z,811.46
2017-08-31T00:11:41.137Z,811.42
2017-08-31T00:11:45.355Z,811.41
2017-08-31T00:11:49.543Z,811.4
2017-08-31T00:11:53.635Z,811.44
2017-08-31T00:11:57.480Z,811.4
2017-08-31T00:12:01.309Z,811.46
2017-08-31T00:12:05.660Z,811.46
2017-08-31T00:12:10.003Z,811.47
2017-08-31T00:12:14.364Z,811.44
2017-08-31T00:12:18.332Z,811.48
2017-08-31T00:12:22.412Z,811.48
2017-08-31T00:12:26.506Z,811.5
2017-08-31T00:12:30.358Z,811.49
2017-08-31T00:12:34.456Z,811.47
2017-08-31T00:12:38.420Z,811.52
2017-08-31T00:12:42.521Z,811.49
2017-08-31T00:12:46.601Z,811.5
2017-08-31T00:12:50.938Z,811.54
2017-08-31T00:12:55.146Z,811.5
2017-08-31T00:12:59.376Z,811.52
2017-08-31T00:13:03.626Z,811.53
2017-08-31T00:13:07.591Z,811.53
2017-08-31T00:13:11.683Z,811.48
2017-08-31T00:13:16.012Z,811.53
2017-08-31T00:13:19.724Z,811.48
2017-08-31T00:13:23.946Z,811.5
2017-08-31T00:13:28.290Z,811.53
2017-08-31T00:13:32.615Z,811.56
2017-08-31T00:13:36.716Z,811.51
2017-08-31T00:13:41.059Z,811.52
2017-08-31T00:13:44.907Z,811.52
2017-08-31T00:13:49.273Z,811.54
2017-08-31T00:13:53.495Z,811.55
2017-08-31T00:13:57.442Z,811.54
2017-08-31T00:14:01.530Z,811.57
2017-08-31T00:14:05.909Z,811.61
2017-08-31T00:14:09.755Z,811.57
2017-08-31T00:14:13.955Z,811.58
2017-08-31T00:14:17.924Z,811.54
2017-08-31T00:14:22.021Z,811.58
2017-08-31T00:14:25.982Z,811.57
2017-08-31T00:14:29.937Z,811.59
2017-08-31T00:14:34.031Z,811.57
2017-08-31T00:14:38.280Z,811.59
2017-08-31T00:14:42.122Z,811.61
2017-08-31T00:14:46.469Z,811.6
2017-08-31T00:14:50.930Z,811.59
2017-08-31T00:14:54.902Z,811.66
2017-08-31T00:14:59.108Z,811.56
2017-08-31T00:15:03.448Z,811.59
2017-08-31T00:15:07.542Z,811.61
2017-08-31T00:15:11.761Z,811.58
2017-08-31T00:15:15.825Z,811.59
2017-08-31T00:15:19.658Z,811.59
2017-08-31T00:15:23.745Z,811.62
2017-08-31T00:15:28.072Z,811.62
2017-08-31T00:15:32.038Z,811.61
2017-08-31T00:15:36.012Z,811.59
2017-08-31T00:15:40.099Z,811.62
2017-08-31T00:15:43.929Z,811.64
2017-08-31T00:15:48.021Z,811.65
2017-08-31T00:15:52.114Z,811.59
2017-08-31T00:15:56.083Z,811.62
2017-08-31T00:16:00.162Z,811.6
2017-08-31T00:16:04.492Z,811.59
2017-08-31T00:16:08.571Z,811.62
2017-08-31T00:16:12.787Z,811.6
2017-08-31T00:16:16.866Z,811.59
2017-08-31T00:16:20.824Z,811.59
2017-08-31T00:16:24.657Z,811.64
2017-08-31T00:16:28.877Z,811.6
2017-08-31T00:16:33.088Z,811.66
2017-08-31T00:16:37.428Z,811.65
2017-08-31T00:16:41.642Z,811.66
2017-08-31T00:16:45.603Z,811.63
2017-08-31T00:16:49.818Z,811.59
2017-08-31T00:16:53.887Z,811.66
2017-08-31T00:16:58.093Z,811.66
2017-08-31T00:17:02.445Z,811.62
2017-08-31T00:17:06.545Z,811.69
2017-08-31T00:17:10.779Z,811.67
2017-08-31T00:17:15.151Z,811.69
2017-08-31T00:17:18.989Z,811.7
2017-08-31T00:17:23.062Z,811.67
2017-08-31T00:17:27.154Z,811.64
2017-08-31T00:17:31.372Z,811.65
2017-08-31T00:17:35.225Z,811.68
2017-08-31T00:17:39.433Z,811.67
2017-08-31T00:17:43.639Z,811.67
2017-08-31T00:17:47.853Z,811.7
2017-08-31T00:17:52.069Z,811.69
2017-08-31T00:17:56.528Z,811.68
2017-08-31T00:18:00.749Z,811.61
2017-08-31T00:18:04.779Z,811.69
2017-08-31T00:18:08.871Z,811.69
2017-08-31T00:18:12.949Z,811.69
2017-08-31T00:18:17.046Z,811.69
2017-08-31T00:18:21.250Z,811.68
2017-08-31T00:18:25.216Z,811.71
2017-08-31T00:18:29.310Z,811.65
2017-08-31T00:18:33.397Z,811.69
2017-08-31T00:18:37.347Z,811.68
2017-08-31T00:18:41.551Z,811.68
2017-08-31T00:18:45.778Z,811.63
2017-08-31T00:18:49.889Z,811.65
2017-08-31T00:18:53.956Z,811.67
2017-08-31T00:18:57.908Z,811.66
2017-08-31T00:19:02.125Z,811.66
2017-08-31T00:19:06.235Z,811.65
2017-08-31T00:19:10.572Z,811.68
2017-08-31T00:19:14.776Z,811.66
2017-08-31T00:19:18.981Z,811.67
2017-08-31T00:19:22.959Z,811.68
2017-08-31T00:19:27.045Z,811.65
2017-08-31T00:19:31.118Z,811.72
2017-08-31T00:19:35.079Z,811.64
2017-08-31T00:19:39.281Z,811.66
2017-08-31T00:19:43.365Z,811.69
2017-08-31T00:19:47.581Z,811.63
2017-08-31T00:19:51.796Z,811.7
2017-08-31T00:19:55.760Z,811.61
2017-08-31T00:19:59.838Z,811.69
2017-08-31T00:20:04.103Z,811.71
2017-08-31T00:20:08.317Z,811.69
2017-08-31T00:20:12.149Z,811.67
2017-08-31T00:20:16.373Z,811.67
2017-08-31T00:20:20.473Z,811.67
2017-08-31T00:20:24.571Z,811.68
2017-08-31T00:20:28.892Z,811.64
2017-08-31T00:20:32.981Z,811.72
2017-08-31T00:20:36.947Z,811.67
2017-08-31T00:20:40.914Z,811.71
2017-08-31T00:20:45.254Z,811.68
2017-08-31T00:20:49.594Z,811.69
2017-08-31T00:20:53.437Z,811.66
2017-08-31T00:20:57.538Z,811.69
2017-08-31T00:21:01.743Z,811.67
2017-08-31T00:21:06.060Z,811.69
2017-08-31T00:21:10.143Z,811.71
2017-08-31T00:21:14.090Z,811.67
2017-08-31T00:21:18.055Z,811.7
2017-08-31T00:21:22.265Z,811.63
2017-08-31T00:21:26.476Z,811.63
2017-08-31T00:21:30.558Z,811.67
2017-08-31T00:21:34.763Z,811.65
2017-08-31T00:21:38.966Z,811.68
2017-08-31T00:21:43.177Z,811.67
2017-08-31T00:21:47.143Z,811.6
2017-08-31T00:21:51.346Z,811.65
2017-08-31T00:21:55.438Z,811.66
2017-08-31T00:21:59.526Z,811.62
2017-08-31T00:22:03.611Z,811.6
2017-08-31T00:22:07.814Z,811.6
2017-08-31T00:22:11.776Z,811.63
2017-08-31T00:22:15.874Z,811.64
2017-08-31T00:22:19.725Z,811.66
2017-08-31T00:22:23.552Z,811.66
2017-08-31T00:22:27.637Z,811.64
2017-08-31T00:22:31.850Z,811.69
2017-08-31T00:22:36.089Z,811.62
2017-08-31T00:22:40.173Z,811.67
2017-08-31T00:22:44.138Z,811.6
2017-08-31T00:22:47.969Z,811.59
2017-08-31T00:22:52.065Z,811.64
2017-08-31T00:22:56.160Z,811.63
2017-08-31T00:23:00.378Z,811.63
2017-08-31T00:23:04.449Z,811.68
2017-08-31T00:23:08.665Z,811.67
2017-08-31T00:23:12.865Z,811.61
2017-08-31T00:23:17.087Z,811.63
2017-08-31T00:23:21.425Z,811.64
2017-08-31T00:23:25.766Z,811.61
2017-08-31T00:23:29.725Z,811.62
2017-08-31T00:23:33.938Z,811.65
2017-08-31T00:23:38.157Z,811.66
2017-08-31T00:23:42.382Z,811.65
2017-08-31T00:23:46.585Z,811.62
2017-08-31T00:23:50.551Z,811.65
2017-08-31T00:23:54.769Z,811.66
2017-08-31T00:23:58.860Z,811.64
2017-08-31T00:24:02.952Z,811.59
2017-08-31T00:24:06.911Z,811.59
2017-08-31T00:24:10.988Z,811.62
2017-08-31T00:24:15.316Z,811.59
2017-08-31T00:24:19.415Z,811.59
2017-08-31T00:24:23.373Z,811.61
2017-08-31T00:24:27.582Z,811.6
2017-08-31T00:24:31.681Z,811.59
2017-08-31T00:24:35.764Z,811.56
2017-08-31T00:24:39.594Z,811.52
2017-08-31T00:24:43.574Z,811.58
2017-08-31T00:24:47.912Z,811.58
2017-08-31T00:24:51.996Z,811.58
2017-08-31T00:24:56.208Z,811.6
2017-08-31T00:25:00.284Z,811.61
2017-08-31T00:25:04.468Z,811.58
2017-08-31T00:25:08.686Z,811.57
2017-08-31T00:25:12.766Z,811.58
2017-08-31T00:25:17.105Z,811.58
2017-08-31T00:25:21.091Z,811.57
2017-08-31T00:25:25.411Z,811.58
2017-08-31T00:25:29.515Z,811.57
2017-08-31T00:25:33.354Z,811.61
2017-08-31T00:25:37.304Z,811.55
2017-08-31T00:25:41.520Z,811.54
2017-08-31T00:25:45.726Z,811.54
2017-08-31T00:25:49.947Z,811.58
2017-08-31T00:25:54.172Z,811.57
2017-08-31T00:25:58.253Z,811.55
2017-08-31T00:26:02.824Z,811.55
2017-08-31T00:26:06.780Z,811.53
2017-08-31T00:26:10.756Z,811.53
2017-08-31T00:26:14.844Z,811.51
2017-08-31T00:26:18.932Z,811.51
2017-08-31T00:26:22.780Z,811.54
2017-08-31T00:26:27.134Z,811.5
2017-08-31T00:26:31.097Z,811.48
2017-08-31T00:26:35.172Z,811.49
2017-08-31T00:26:39.386Z,811.53
2017-08-31T00:26:43.349Z,811.53
2017-08-31T00:26:47.568Z,811.52
2017-08-31T00:26:51.413Z,811.42
2017-08-31T00:26:55.632Z,811.47
2017-08-31T00:26:59.728Z,811.5
2017-08-31T00:27:04.047Z,811.48
2017-08-31T00:27:08.257Z,811.47
2017-08-31T00:27:12.721Z,811.5
2017-08-31T00:27:16.816Z,811.47
2017-08-31T00:27:20.779Z,811.47
2017-08-31T00:27:24.988Z,811.48
2017-08-31T00:27:29.077Z,811.47
2017-08-31T00:27:33.037Z,811.51
2017-08-31T00:27:36.867Z,811.47
2017-08-31T00:27:40.958Z,811.43
2017-08-31T00:27:44.929Z,811.45
2017-08-31T00:27:49.153Z,811.47
2017-08-31T00:27:53.368Z,811.46
2017-08-31T00:27:57.457Z,811.45
2017-08-31T00:28:01.420Z,811.47
2017-08-31T00:28:05.752Z,811.48
2017-08-31T00:28:09.963Z,811.45
2017-08-31T00:28:14.301Z,811.46
2017-08-31T00:28:18.526Z,811.45
2017-08-31T00:28:22.489Z,811.45
2017-08-31T00:28:26.706Z,811.43
2017-08-31T00:28:30.676Z,811.41
2017-08-31T00:28:34.762Z,811.41
2017-08-31T00:28:38.868Z,811.41
2017-08-31T00:28:42.953Z,811.42
2017-08-31T00:28:47.172Z,811.41
2017-08-31T00:28:51.192Z,811.42
2017-08-31T00:28:55.406Z,811.44
2017-08-31T00:28:59.623Z,811.42
2017-08-31T00:29:04.093Z,811.4
2017-08-31T00:29:08.181Z,811.41
2017-08-31T00:29:12.378Z,811.42
2017-08-31T00:29:16.582Z,811.4
2017-08-31T00:29:20.787Z,811.37
2017-08-31T00:29:24.744Z,811.42
2017-08-31T00:29:28.963Z,811.38
2017-08-31T00:29:33.052Z,811.39
2017-08-31T00:29:37.141Z,811.35
2017-08-31T00:29:41.091Z,811.38
2017-08-31T00:29:44.926Z,811.41
2017-08-31T00:29:48.903Z,811.39
2017-08-31T00:29:53.232Z,811.39
2017-08-31T00:29:57.340Z,811.41
2017-08-31T00:30:01.415Z,811.36
2017-08-31T00:30:05.656Z,811.41
2017-08-31T00:30:10.171Z,811.41
2017-08-31T00:30:14.245Z,811.39
2017-08-31T00:30:18.455Z,811.41
2017-08-31T00:30:22.670Z,811.4
2017-08-31T00:30:27.021Z,811.37
2017-08-31T00:30:31.223Z,811.37
2017-08-31T00:30:35.313Z,811.34
2017-08-31T00:30:39.663Z,811.33
2017-08-31T00:30:43.746Z,811.38
2017-08-31T00:30:47.837Z,811.4
2017-08-31T00:30:52.151Z,811.37
2017-08-31T00:30:56.497Z,811.34
2017-08-31T00:31:00.339Z,811.34
2017-08-31T00:31:04.761Z,811.4
2017-08-31T00:31:08.725Z,811.38
2017-08-31T00:31:12.551Z,811.38
2017-08-31T00:31:16.640Z,811.36
2017-08-31T00:31:20.718Z,811.35
2017-08-31T00:31:24.943Z,811.37
2017-08-31T00:31:29.151Z,811.36
2017-08-31T00:31:33.123Z,811.42
2017-08-31T00:31:37.090Z,811.37
2017-08-31T00:31:41.300Z,811.38
2017-08-31T00:31:45.625Z,811.32
2017-08-31T00:31:49.852Z,811.37
2017-08-31T00:31:54.192Z,811.35
2017-08-31T00:31:58.534Z,811.38
2017-08-31T00:32:34.608Z,811.35
2017-08-31T00:32:38.565Z,811.32
2017-08-31T00:32:42.903Z,811.35
2017-08-31T00:32:46.852Z,811.34
2017-08-31T00:32:51.074Z,811.38
2017-08-31T00:32:55.404Z,811.35
2017-08-31T00:32:59.357Z,811.34
2017-08-31T00:33:03.803Z,811.35
2017-08-31T00:33:07.905Z,811.32
2017-08-31T00:33:12.121Z,811.27
2017-08-31T00:33:16.219Z,811.31
2017-08-31T00:33:20.563Z,811.33
2017-08-31T00:33:24.791Z,811.36
2017-08-31T00:33:29.001Z,811.32
2017-08-31T00:33:32.971Z,811.34
2017-08-31T00:33:37.064Z,811.32
2017-08-31T00:33:41.398Z,811.33
2017-08-31T00:33:45.498Z,811.35
2017-08-31T00:33:49.830Z,811.35
2017-08-31T00:33:53.805Z,811.33
2017-08-31T00:33:58.029Z,811.34
2017-08-31T00:34:01.993Z,811.35
2017-08-31T00:34:06.332Z,811.32
2017-08-31T00:34:10.541Z,811.32
2017-08-31T00:34:14.768Z,811.35
2017-08-31T00:34:18.867Z,811.32
2017-08-31T00:34:22.843Z,811.31
2017-08-31T00:34:27.183Z,811.31
2017-08-31T00:34:31.396Z,811.34
2017-08-31T00:34:35.607Z,811.3
2017-08-31T00:34:39.715Z,811.27
2017-08-31T00:34:43.680Z,811.29
2017-08-31T00:34:47.891Z,811.28
2017-08-31T00:34:51.974Z,811.29
2017-08-31T00:34:56.085Z,811.29
2017-08-31T00:35:00.041Z,811.31
2017-08-31T00:35:04.121Z,811.26
2017-08-31T00:35:08.455Z,811.25
2017-08-31T00:35:12.791Z,811.28
2017-08-31T00:35:17.006Z,811.28
2017-08-31T00:35:20.971Z,811.29
2017-08-31T00:35:25.057Z,811.29
2017-08-31T00:35:29.376Z,811.29
2017-08-31T00:35:33.465Z,811.29
2017-08-31T00:35:37.554Z,811.26
2017-08-31T00:35:41.527Z,811.26
2017-08-31T00:35:45.998Z,811.22
2017-08-31T00:35:49.950Z,811.25
2017-08-31T00:35:54.156Z,811.26
2017-08-31T00:35:58.637Z,811.27
2017-08-31T00:36:03.285Z,811.27
2017-08-31T00:36:07.377Z,811.3
2017-08-31T00:36:11.595Z,811.27
2017-08-31T00:36:15.688Z,811.23
2017-08-31T00:36:19.768Z,811.28
2017-08-31T00:36:23.862Z,811.27
2017-08-31T00:36:27.702Z,811.27
2017-08-31T00:36:31.785Z,811.27
2017-08-31T00:36:35.995Z,811.24
2017-08-31T00:36:39.706Z,811.18
2017-08-31T00:36:43.801Z,811.23
2017-08-31T00:36:47.645Z,811.25
2017-08-31T00:36:51.846Z,811.2
2017-08-31T00:36:55.917Z,811.24
2017-08-31T00:36:59.987Z,811.22
2017-08-31T00:37:04.116Z,811.25
2017-08-31T00:37:08.061Z,811.25
2017-08-31T00:37:12.014Z,811.25
2017-08-31T00:37:16.415Z,811.21
2017-08-31T00:37:20.383Z,811.25
2017-08-31T00:37:24.591Z,811.18
2017-08-31T00:37:28.818Z,811.17
2017-08-31T00:37:33.033Z,811.17
2017-08-31T00:37:37.111Z,811.19
2017-08-31T00:37:41.190Z,811.19
2017-08-31T00:37:45.400Z,811.17
2017-08-31T00:37:49.614Z,811.2
2017-08-31T00:37:53.697Z,811.17
2017-08-31T00:37:57.905Z,811.17
2017-08-31T00:38:02.141Z,811.2
2017-08-31T00:38:06.090Z,811.2
2017-08-31T00:38:10.186Z,811.18
2017-08-31T00:38:14.400Z,811.17
2017-08-31T00:38:18.374Z,811.14
2017-08-31T00:38:22.346Z,811.16
2017-08-31T00:38:26.565Z,811.18
2017-08-31T00:38:30.404Z,811.16
2017-08-31T00:38:34.367Z,811.14
2017-08-31T00:38:38.321Z,811.17
2017-08-31T00:38:42.794Z,811.15
2017-08-31T00:38:47.142Z,811.15
2017-08-31T00:38:51.510Z,811.11
2017-08-31T00:38:55.964Z,811.15
2017-08-31T00:39:00.178Z,811.11
2017-08-31T00:39:04.798Z,811.11
2017-08-31T00:39:09.007Z,811.11
2017-08-31T00:39:13.104Z,811.12
2017-08-31T00:39:17.195Z,811.11
2017-08-31T00:39:21.417Z,811.1
2017-08-31T00:39:25.503Z,811.08
2017-08-31T00:39:29.590Z,811.1
2017-08-31T00:39:33.805Z,811.11
2017-08-31T00:39:37.632Z,811.05
2017-08-31T00:39:41.980Z,811.08
2017-08-31T00:39:45.808Z,811.08
2017-08-31T00:39:50.018Z,811.09
2017-08-31T00:39:54.106Z,811.06
2017-08-31T00:39:58.357Z,811.08
2017-08-31T00:40:02.454Z,811.1
2017-08-31T00:40:06.418Z,811.07
2017-08-31T00:40:10.761Z,811.05
2017-08-31T00:40:14.726Z,811.04
2017-08-31T00:40:18.692Z,811.04
2017-08-31T00:40:23.049Z,811.05
2017-08-31T00:40:26.896Z,811.06
2017-08-31T00:40:30.976Z,811.04
2017-08-31T00:40:34.806Z,811.03
2017-08-31T00:40:39.017Z,811.04
2017-08-31T00:40:43.108Z,811.03
2017-08-31T00:40:47.061Z,811.02
2017-08-31T00:40:51.151Z,810.99
2017-08-31T00:40:55.368Z,811.01
2017-08-31T00:40:59.708Z,811
2017-08-31T00:41:03.991Z,811
2017-08-31T00:41:08.216Z,811.03
2017-08-31T00:41:12.492Z,811.02
2017-08-31T00:41:16.879Z,810.98
2017-08-31T00:41:20.731Z,810.97
2017-08-31T00:41:24.821Z,810.97
2017-08-31T00:41:28.921Z,810.97
2017-08-31T00:41:33.006Z,810.94
2017-08-31T00:41:37.226Z,810.96
2017-08-31T00:41:41.435Z,810.98
2017-08-31T00:41:45.519Z,810.99
2017-08-31T00:41:49.491Z,810.96
2017-08-31T00:41:53.200Z,810.93
2017-08-31T00:41:57.043Z,810.95
2017-08-31T00:42:01.415Z,810.94
2017-08-31T00:42:05.642Z,810.92
2017-08-31T00:42:09.598Z,810.91
2017-08-31T00:42:13.686Z,810.93
2017-08-31T00:42:17.892Z,810.91
2017-08-31T00:42:22.233Z,810.89
2017-08-31T00:42:26.197Z,810.88
2017-08-31T00:42:30.153Z,810.91
2017-08-31T00:42:34.385Z,810.9
2017-08-31T00:42:38.602Z,810.92
2017-08-31T00:42:42.703Z,810.86
2017-08-31T00:42:46.671Z,810.9
2017-08-31T00:42:50.882Z,810.91
2017-08-31T00:42:54.703Z,810.88
2017-08-31T00:42:58.901Z,810.87
2017-08-31T00:43:03.337Z,810.79
2017-08-31T00:43:07.556Z,810.84
2017-08-31T00:43:11.766Z,810.85
2017-08-31T00:43:15.869Z,810.84
2017-08-31T00:43:19.966Z,810.85
2017-08-31T00:43:24.219Z,810.78
2017-08-31T00:43:28.179Z,810.82
2017-08-31T00:43:32.138Z,810.82
2017-08-31T00:43:36.229Z,810.8
2017-08-31T00:43:40.448Z,810.82
2017-08-31T00:43:44.409Z,810.82
2017-08-31T00:43:48.487Z,810.8
2017-08-31T00:43:52.579Z,810.8
2017-08-31T00:43:56.923Z,810.78
2017-08-31T00:44:01.008Z,810.77
2017-08-31T00:44:05.319Z,810.76
2017-08-31T00:44:09.682Z,810.77
2017-08-31T00:44:13.657Z,810.74
2017-08-31T00:44:17.750Z,810.74
2017-08-31T00:44:21.710Z,810.77
2017-08-31T00:44:25.923Z,810.75
2017-08-31T00:44:30.025Z,810.76
2017-08-31T00:44:34.006Z,810.76
2017-08-31T00:44:38.107Z,810.74
2017-08-31T00:44:42.201Z,810.74
2017-08-31T00:44:46.540Z,810.74
2017-08-31T00:44:50.511Z,810.71
2017-08-31T00:44:54.731Z,810.72
2017-08-31T00:44:58.567Z,810.71
2017-08-31T00:45:02.905Z,810.7
2017-08-31T00:45:06.993Z,810.68
2017-08-31T00:45:11.095Z,810.67
2017-08-31T00:45:15.187Z,810.68
2017-08-31T00:45:19.033Z,810.67
2017-08-31T00:45:23.234Z,810.67
2017-08-31T00:45:27.447Z,810.67
2017-08-31T00:45:31.550Z,810.65
2017-08-31T00:45:35.874Z,810.66
2017-08-31T00:45:39.836Z,810.65
2017-08-31T00:45:43.924Z,810.65
2017-08-31T00:45:48.274Z,810.61
2017-08-31T00:45:52.111Z,810.59
2017-08-31T00:45:56.317Z,810.63
2017-08-31T00:46:00.138Z,810.58
2017-08-31T00:46:04.515Z,810.59
2017-08-31T00:46:08.856Z,810.61
2017-08-31T00:46:12.948Z,810.58
2017-08-31T00:46:16.659Z,810.59
2017-08-31T00:46:20.612Z,810.59
2017-08-31T00:46:24.560Z,810.6
2017-08-31T00:46:28.786Z,810.59
2017-08-31T00:46:33.124Z,810.54
2017-08-31T00:46:37.337Z,810.57
2017-08-31T00:46:41.536Z,810.58
2017-08-31T00:46:45.875Z,810.55
2017-08-31T00:46:49.851Z,810.58
2017-08-31T00:46:54.059Z,810.53
2017-08-31T00:46:58.271Z,810.53
2017-08-31T00:47:02.124Z,810.56
2017-08-31T00:47:06.083Z,810.55
2017-08-31T00:47:10.289Z,810.54
2017-08-31T00:47:14.368Z,810.52
2017-08-31T00:47:18.342Z,810.55
2017-08-31T00:47:22.315Z,810.5
2017-08-31T00:47:26.545Z,810.51
2017-08-31T00:47:30.760Z,810.5
2017-08-31T00:47:34.611Z,810.53
2017-08-31T00:47:38.729Z,810.52
2017-08-31T00:47:43.061Z,810.54
2017-08-31T00:47:47.275Z,810.5
2017-08-31T00:47:51.630Z,810.46
2017-08-31T00:47:55.850Z,810.49
2017-08-31T00:47:59.930Z,810.42
2017-08-31T00:48:04.024Z,810.45
2017-08-31T00:48:08.009Z,810.46
2017-08-31T00:48:12.231Z,810.48
2017-08-31T00:48:16.184Z,810.45
2017-08-31T00:48:20.396Z,810.47
2017-08-31T00:48:24.480Z,810.44
2017-08-31T00:48:28.691Z,810.43
2017-08-31T00:48:32.653Z,810.42
2017-08-31T00:48:37.004Z,810.42
2017-08-31T00:48:40.976Z,810.43
2017-08-31T00:48:45.054Z,810.43
2017-08-31T00:48:49.127Z,810.43
2017-08-31T00:48:53.216Z,810.42
2017-08-31T00:48:57.428Z,810.41
2017-08-31T00:49:01.638Z,810.4
2017-08-31T00:49:06.051Z,810.4
2017-08-31T00:49:10.398Z,810.39
2017-08-31T00:49:14.609Z,810.42
2017-08-31T00:49:18.810Z,810.37
2017-08-31T00:49:22.662Z,810.38
2017-08-31T00:49:26.751Z,810.41
2017-08-31T00:49:30.845Z,810.36
2017-08-31T00:49:35.048Z,810.37
2017-08-31T00:49:39.147Z,810.39
2017-08-31T00:49:43.351Z,810.37
2017-08-31T00:49:47.683Z,810.38
2017-08-31T00:49:52.006Z,810.31
2017-08-31T00:49:56.208Z,810.34
2017-08-31T00:50:00.176Z,810.35
2017-08-31T00:50:04.509Z,810.32
2017-08-31T00:50:08.838Z,810.32
2017-08-31T00:50:13.173Z,810.29
2017-08-31T00:50:17.128Z,810.28
2017-08-31T00:50:21.334Z,810.28
2017-08-31T00:50:25.668Z,810.32
2017-08-31T00:50:29.990Z,810.31
2017-08-31T00:50:34.072Z,810.29
2017-08-31T00:50:38.152Z,810.32
2017-08-31T00:50:42.125Z,810.29
2017-08-31T00:50:46.464Z,810.31
2017-08-31T00:50:50.681Z,810.28
2017-08-31T00:50:54.767Z,810.24
2017-08-31T00:50:58.976Z,810.28
2017-08-31T00:51:03.230Z,810.25
2017-08-31T00:51:07.199Z,810.26
2017-08-31T00:51:11.409Z,810.2
2017-08-31T00:51:15.371Z,810.26
2017-08-31T00:51:19.220Z,810.27
2017-08-31T00:51:23.195Z,810.22
2017-08-31T00:51:27.315Z,810.23
2017-08-31T00:51:31.273Z,810.24
2017-08-31T00:51:35.617Z,810.23
2017-08-31T00:51:39.472Z,810.22
2017-08-31T00:51:43.795Z,810.2
2017-08-31T00:51:47.758Z,810.22
2017-08-31T00:51:51.712Z,810.18
2017-08-31T00:51:55.681Z,810.22
2017-08-31T00:52:00.024Z,810.18
2017-08-31T00:52:04.238Z,810.21
2017-08-31T00:52:08.463Z,810.2
2017-08-31T00:52:12.695Z,810.16
2017-08-31T00:52:17.033Z,810.16
2017-08-31T00:52:21.255Z,810.18
2017-08-31T00:52:25.731Z,810.16
2017-08-31T00:52:29.813Z,810.15
2017-08-31T00:52:33.904Z,810.15
2017-08-31T00:52:37.996Z,810.16
2017-08-31T00:52:42.092Z,810.15